Time;durP1;ratioP1;P1;durP2;ratioP2;P2;SDS_P1;SDS_P2;PMS_P1;PMS_P2;Temp;Humidity;BMP_temperature;BMP_pressure;BME280_temperature;BME280_humidity;BME280_pressure;Samples;Min_cycle;Max_cycle;Signal;HPM_P1;HPM_P2
2023/04/26 00:01:05;;;;;;;;;;;;;;;4.65;nan;100660.59;5036939;28;19966;-81
2023/04/26 00:03:30;;;;;;;;;;;;;;;4.56;nan;100667.31;5035774;28;19928;-83
2023/04/26 00:05:55;;;;;;;;;;;;;;;4.47;nan;100676.66;5038980;28;19921;-82
2023/04/26 00:08:20;;;;;;;;;;;;;;;4.40;nan;100670.16;5039838;28;20015;-82
2023/04/26 00:10:45;;;;;;;;;;;;;;;4.34;nan;100667.13;5025674;28;19932;-82
2023/04/26 00:13:10;;;;;;;;;;;;;;;4.27;nan;100672.00;5034932;28;19921;-82
2023/04/26 00:15:36;;;;;;;;;;;;;;;4.22;nan;100671.47;5036349;28;20399;-82
2023/04/26 00:18:01;;;;;;;;;;;;;;;4.15;nan;100668.44;5036795;28;19960;-82
2023/04/26 00:20:26;;;;;;;;;;;;;;;4.12;nan;100667.81;5031123;28;19932;-83
2023/04/26 00:22:52;;;;;;;;;;;;;;;4.08;nan;100669.81;5057634;28;20027;-83
2023/04/26 00:25:17;;;;;;;;;;;;;;;4.04;nan;100670.97;5039286;28;19921;-82
2023/04/26 00:27:42;;;;;;;;;;;;;;;4.00;nan;100670.34;5055749;28;20351;-82
2023/04/26 00:30:08;;;;;;;;;;;;;;;3.95;nan;100680.28;5035627;28;20364;-82
2023/04/26 00:32:34;;;;;;;;;;;;;;;3.92;nan;100677.06;5043634;28;20000;-82
2023/04/26 00:34:59;;;;;;;;;;;;;;;3.83;nan;100679.34;5058065;28;19980;-82
2023/04/26 00:37:24;;;;;;;;;;;;;;;3.78;nan;100681.44;5040121;28;19968;-81
2023/04/26 00:39:50;;;;;;;;;;;;;;;3.72;nan;100684.47;5049333;28;19925;-83
2023/04/26 00:42:15;;;;;;;;;;;;;;;3.69;nan;100676.00;5038704;28;19975;-82
2023/04/26 00:44:40;;;;;;;;;;;;;;;3.63;nan;100673.81;5036479;28;20289;-82
2023/04/26 00:47:05;;;;;;;;;;;;;;;3.56;nan;100681.22;5057723;28;19925;-83
2023/04/26 00:49:31;;;;;;;;;;;;;;;3.49;nan;100674.72;5051498;28;19921;-82
2023/04/26 00:51:56;;;;;;;;;;;;;;;3.42;nan;100682.13;5042874;28;20019;-82
2023/04/26 00:54:22;;;;;;;;;;;;;;;3.36;nan;100686.00;5026910;28;19948;-82
2023/04/26 00:56:50;;;;;;;;;;;;;;;3.33;nan;100687.97;5039487;28;20352;-82
2023/04/26 00:59:16;;;;;;;;;;;;;;;3.28;nan;100680.44;5056478;28;19975;-82
2023/04/26 01:01:41;;;;;;;;;;;;;;;3.24;nan;100684.19;5047072;28;19971;-82
2023/04/26 01:04:07;;;;;;;;;;;;;;;3.21;nan;100680.94;5033506;28;19921;-82
2023/04/26 01:06:33;;;;;;;;;;;;;;;3.17;nan;100678.53;5031068;28;19979;-82
2023/04/26 01:09:00;;;;;;;;;;;;;;;3.14;nan;100683.94;5057469;28;19921;-82
2023/04/26 01:11:26;;;;;;;;;;;;;;;3.11;nan;100681.53;5038605;28;19929;-82
2023/04/26 01:13:51;;;;;;;;;;;;;;;3.08;nan;100684.38;5057931;28;19920;-82
2023/04/26 01:16:18;;;;;;;;;;;;;;;3.07;nan;100687.91;5038433;28;19921;-82
2023/04/26 01:18:49;;;;;;;;;;;;;;;3.08;nan;100683.53;5038643;28;19928;-81
2023/04/26 01:21:19;;;;;;;;;;;;;;;3.05;nan;100684.56;5057082;28;19921;-82
2023/04/26 01:23:45;;;;;;;;;;;;;;;3.01;nan;100685.69;5054446;28;19929;-82
2023/04/26 01:26:10;;;;;;;;;;;;;;;3.01;nan;100683.09;5050833;28;19927;-82
2023/04/26 01:28:35;;;;;;;;;;;;;;;3.04;nan;100682.88;5038841;28;20468;-81
2023/04/26 01:31:00;;;;;;;;;;;;;;;3.04;nan;100685.50;5055631;28;19929;-82
2023/04/26 01:33:25;;;;;;;;;;;;;;;3.03;nan;100689.06;5045090;28;19981;-82
2023/04/26 01:35:51;;;;;;;;;;;;;;;3.02;nan;100681.31;5051609;28;19921;-82
2023/04/26 01:38:16;;;;;;;;;;;;;;;2.99;nan;100679.72;5025594;28;19921;-82
2023/04/26 01:40:44;;;;;;;;;;;;;;;2.96;nan;100677.31;5029709;28;19932;-83
2023/04/26 01:43:10;;;;;;;;;;;;;;;2.93;nan;100675.75;5051711;28;19921;-82
2023/04/26 01:45:35;;;;;;;;;;;;;;;2.87;nan;100673.53;5036412;28;19927;-82
2023/04/26 01:48:00;;;;;;;;;;;;;;;2.82;nan;100675.59;5040425;28;19921;-82
2023/04/26 01:50:26;;;;;;;;;;;;;;;2.79;nan;100681.03;5049421;28;19983;-81
2023/04/26 01:52:51;;;;;;;;;;;;;;;2.76;nan;100673.34;5045454;28;19925;-82
2023/04/26 01:55:16;;;;;;;;;;;;;;;2.71;nan;100668.44;5048864;28;19921;-82
2023/04/26 01:57:41;;;;;;;;;;;;;;;2.68;nan;100676.47;5044018;28;19979;-81
2023/04/26 02:00:07;;;;;;;;;;;;;;;2.72;nan;100674.50;5036281;28;19925;-81
2023/04/26 02:02:32;;;;;;;;;;;;;;;2.78;nan;100673.28;5055961;28;20408;-83
2023/04/26 02:04:58;;;;;;;;;;;;;;;2.83;nan;100660.75;5036993;28;19932;-82
2023/04/26 02:07:23;;;;;;;;;;;;;;;2.85;nan;100664.13;5038515;28;19920;-83
2023/04/26 02:09:48;;;;;;;;;;;;;;;2.87;nan;100670.06;5049135;28;19921;-82
2023/04/26 02:12:13;;;;;;;;;;;;;;;2.87;nan;100664.84;5050776;28;19932;-83
2023/04/26 02:14:39;;;;;;;;;;;;;;;2.89;nan;100668.22;5034616;28;20011;-81
2023/04/26 02:17:05;;;;;;;;;;;;;;;2.92;nan;100673.22;5036880;28;19976;-81
2023/04/26 02:19:30;;;;;;;;;;;;;;;2.93;nan;100674.88;5050491;28;20004;-82
2023/04/26 02:21:56;;;;;;;;;;;;;;;2.93;nan;100670.53;5052008;28;19959;-81
2023/04/26 02:24:22;;;;;;;;;;;;;;;2.96;nan;100672.09;5048754;28;19929;-82
2023/04/26 02:26:47;;;;;;;;;;;;;;;2.92;nan;100676.66;5031464;28;19917;-82
2023/04/26 02:29:13;;;;;;;;;;;;;;;2.89;nan;100673.44;5035700;28;19967;-82
2023/04/26 02:31:38;;;;;;;;;;;;;;;2.86;nan;100677.09;5033212;28;19932;-83
2023/04/26 02:34:03;;;;;;;;;;;;;;;2.87;nan;100675.31;5036846;28;19920;-83
2023/04/26 02:36:29;;;;;;;;;;;;;;;2.87;nan;100673.53;5029697;28;20015;-81
2023/04/26 02:38:54;;;;;;;;;;;;;;;2.90;nan;100675.09;5036845;28;19928;-82
2023/04/26 02:41:19;;;;;;;;;;;;;;;2.95;nan;100673.00;5029873;28;19951;-82
2023/04/26 02:43:44;;;;;;;;;;;;;;;2.91;nan;100676.78;5028850;28;20448;-82
2023/04/26 02:46:09;;;;;;;;;;;;;;;2.89;nan;100676.88;5032890;28;19929;-82
2023/04/26 02:48:35;;;;;;;;;;;;;;;2.89;nan;100669.03;5046344;28;19992;-81
2023/04/26 02:51:00;;;;;;;;;;;;;;;2.86;nan;100661.41;5018284;28;19948;-81
2023/04/26 02:53:25;;;;;;;;;;;;;;;2.86;nan;100665.78;5046366;28;20676;-81
2023/04/26 02:55:50;;;;;;;;;;;;;;;2.88;nan;100669.97;5034056;28;19921;-81
2023/04/26 02:58:16;;;;;;;;;;;;;;;2.83;nan;100666.81;5027287;28;20017;-81
2023/04/26 03:00:45;;;;;;;;;;;;;;;2.78;nan;100668.06;5038645;28;19920;-81
2023/04/26 03:03:11;;;;;;;;;;;;;;;2.81;nan;100676.50;5050478;28;20472;-82
2023/04/26 03:05:36;;;;;;;;;;;;;;;2.78;nan;100673.28;5030799;28;19925;-82
2023/04/26 03:08:01;;;;;;;;;;;;;;;2.80;nan;100679.25;5050045;28;19967;-82
2023/04/26 03:10:28;;;;;;;;;;;;;;;2.78;nan;100673.28;5025706;28;19921;-83
2023/04/26 03:12:53;;;;;;;;;;;;;;;2.76;nan;100676.84;5016909;28;20016;-81
2023/04/26 03:15:18;;;;;;;;;;;;;;;2.76;nan;100679.44;5050228;28;20009;-82
2023/04/26 03:17:43;;;;;;;;;;;;;;;2.74;nan;100680.44;5036845;28;19925;-82
2023/04/26 03:20:09;;;;;;;;;;;;;;;2.69;nan;100679.91;5031193;28;20425;-82
2023/04/26 03:22:35;;;;;;;;;;;;;;;2.64;nan;100680.19;5015837;28;20009;-82
2023/04/26 03:25:00;;;;;;;;;;;;;;;2.64;nan;100682.81;5036840;28;20427;-81
2023/04/26 03:27:25;;;;;;;;;;;;;;;2.61;nan;100682.19;5033006;28;19920;-82
2023/04/26 03:29:50;;;;;;;;;;;;;;;2.61;nan;100683.00;5033703;28;19921;-81
2023/04/26 03:32:16;;;;;;;;;;;;;;;2.57;nan;100681.53;5035740;28;19988;-81
2023/04/26 03:34:41;;;;;;;;;;;;;;;2.53;nan;100674.84;5037353;28;19921;-81
2023/04/26 03:37:06;;;;;;;;;;;;;;;2.51;nan;100679.31;5037025;28;19921;-82
2023/04/26 03:39:31;;;;;;;;;;;;;;;2.48;nan;100677.72;5054179;28;19925;-82
2023/04/26 03:41:56;;;;;;;;;;;;;;;2.41;nan;100683.41;5055319;28;19932;-81
2023/04/26 03:44:22;;;;;;;;;;;;;;;2.36;nan;100680.25;5031948;28;19921;-82
2023/04/26 03:46:47;;;;;;;;;;;;;;;2.30;nan;100684.09;5056054;28;20827;-81
2023/04/26 03:49:12;;;;;;;;;;;;;;;2.25;nan;100681.75;5027388;28;19955;-82
2023/04/26 03:51:37;;;;;;;;;;;;;;;2.22;nan;100670.69;5038249;28;19929;-82
2023/04/26 03:54:03;;;;;;;;;;;;;;;2.17;nan;100683.16;5038216;28;19920;-81
2023/04/26 03:56:28;;;;;;;;;;;;;;;2.08;nan;100681.97;5048631;28;19983;-82
2023/04/26 03:58:53;;;;;;;;;;;;;;;2.02;nan;100680.56;5036465;28;19925;-82
2023/04/26 04:01:19;;;;;;;;;;;;;;;1.97;nan;100689.59;5054973;28;19927;-82
2023/04/26 04:03:44;;;;;;;;;;;;;;;1.91;nan;100683.81;5021484;28;19943;-82
2023/04/26 04:06:09;;;;;;;;;;;;;;;1.86;nan;100682.41;5037826;28;19932;-82
2023/04/26 04:08:35;;;;;;;;;;;;;;;1.81;nan;100681.84;5042574;28;19994;-82
2023/04/26 04:11:00;;;;;;;;;;;;;;;1.75;nan;100683.06;5042257;28;20110;-80
2023/04/26 04:13:26;;;;;;;;;;;;;;;1.67;nan;100673.09;5048953;28;19921;-82
2023/04/26 04:15:51;;;;;;;;;;;;;;;1.65;nan;100669.75;5032540;28;19925;-82
2023/04/26 04:18:16;;;;;;;;;;;;;;;1.65;nan;100676.72;5024723;28;19956;-82
2023/04/26 04:20:41;;;;;;;;;;;;;;;1.63;nan;100682.03;5047083;28;19925;-81
2023/04/26 04:23:07;;;;;;;;;;;;;;;1.60;nan;100684.81;5057541;28;19928;-81
2023/04/26 04:25:33;;;;;;;;;;;;;;;1.56;nan;100682.47;5050402;28;19925;-82
2023/04/26 04:27:58;;;;;;;;;;;;;;;1.54;nan;100685.16;5040000;28;19921;-82
2023/04/26 04:30:25;;;;;;;;;;;;;;;1.51;nan;100687.13;5060894;28;19921;-81
2023/04/26 04:32:50;;;;;;;;;;;;;;;1.48;nan;100685.53;5045308;28;19925;-82
2023/04/26 04:35:15;;;;;;;;;;;;;;;1.48;nan;100682.94;5051306;28;20388;-81
2023/04/26 04:37:40;;;;;;;;;;;;;;;1.48;nan;100686.38;5041744;28;19925;-82
2023/04/26 04:40:08;;;;;;;;;;;;;;;1.48;nan;100694.19;5057346;28;19920;-82
2023/04/26 04:42:34;;;;;;;;;;;;;;;1.55;nan;100699.03;5059367;28;20280;-82
2023/04/26 04:45:00;;;;;;;;;;;;;;;1.62;nan;100692.53;5039685;28;19921;-82
2023/04/26 04:47:25;;;;;;;;;;;;;;;1.70;nan;100700.75;5038858;28;19929;-82
2023/04/26 04:49:51;;;;;;;;;;;;;;;1.76;nan;100697.75;5024247;28;19921;-83
2023/04/26 04:52:18;;;;;;;;;;;;;;;1.82;nan;100697.41;5016668;28;19929;-81
2023/04/26 04:54:43;;;;;;;;;;;;;;;1.89;nan;100703.94;5046454;28;19991;-81
2023/04/26 04:57:09;;;;;;;;;;;;;;;1.96;nan;100706.19;5049552;28;19921;-82
2023/04/26 04:59:34;;;;;;;;;;;;;;;2.03;nan;100712.72;5037934;28;19974;-83
2023/04/26 05:02:00;;;;;;;;;;;;;;;2.10;nan;100711.41;5063534;28;19951;-83
2023/04/26 05:04:25;;;;;;;;;;;;;;;2.20;nan;100709.91;5060476;28;20544;-81
2023/04/26 05:06:51;;;;;;;;;;;;;;;2.29;nan;100717.19;5060066;28;19955;-82
2023/04/26 05:09:16;;;;;;;;;;;;;;;2.47;nan;100722.19;5040939;28;19920;-81
2023/04/26 05:11:41;;;;;;;;;;;;;;;2.58;nan;100724.16;5036832;28;19947;-83
2023/04/26 05:14:06;;;;;;;;;;;;;;;2.79;nan;100728.03;5042518;28;19974;-82
2023/04/26 05:16:32;;;;;;;;;;;;;;;3.03;nan;100725.63;5029992;28;19928;-82
2023/04/26 05:18:57;;;;;;;;;;;;;;;3.27;nan;100731.03;5055856;28;20007;-82
2023/04/26 05:21:22;;;;;;;;;;;;;;;3.54;nan;100736.22;5057809;28;19921;-82
2023/04/26 05:23:48;;;;;;;;;;;;;;;3.80;nan;100731.88;5033025;28;19928;-82
2023/04/26 05:26:14;;;;;;;;;;;;;;;3.99;nan;100733.25;5040196;28;19917;-81
2023/04/26 05:28:40;;;;;;;;;;;;;;;4.18;nan;100736.28;5039992;28;20461;-81
2023/04/26 05:31:08;;;;;;;;;;;;;;;4.44;nan;100734.47;5041383;28;19925;-81
2023/04/26 05:33:33;;;;;;;;;;;;;;;4.80;nan;100748.53;5040238;28;20057;-82
2023/04/26 05:35:58;;;;;;;;;;;;;;;5.16;nan;100748.63;5039007;28;19921;-82
2023/04/26 05:38:23;;;;;;;;;;;;;;;5.48;nan;100746.25;5056837;28;19951;-81
2023/04/26 05:40:49;;;;;;;;;;;;;;;5.77;nan;100751.97;5036870;28;19932;-82
2023/04/26 05:43:14;;;;;;;;;;;;;;;6.12;nan;100741.44;5025312;28;19936;-81
2023/04/26 05:45:48;;;;;;;;;;;;;;;6.42;nan;100753.16;5016197;28;19952;-82
2023/04/26 05:48:13;;;;;;;;;;;;;;;6.61;nan;100747.31;5043549;28;20300;-83
2023/04/26 05:50:39;;;;;;;;;;;;;;;6.93;nan;100743.91;5038370;28;19947;-83
2023/04/26 05:53:04;;;;;;;;;;;;;;;7.24;nan;100744.91;5050481;28;20330;-82
2023/04/26 05:55:29;;;;;;;;;;;;;;;7.49;nan;100751.63;5039032;28;19916;-81
2023/04/26 05:57:54;;;;;;;;;;;;;;;7.79;nan;100739.50;5048538;28;19921;-83
2023/04/26 06:00:22;;;;;;;;;;;;;;;8.13;nan;100745.41;5054722;28;20377;-82
2023/04/26 06:02:47;;;;;;;;;;;;;;;8.50;nan;100751.00;5048009;28;19921;-83
2023/04/26 06:05:12;;;;;;;;;;;;;;;8.75;nan;100755.94;5030764;28;19921;-82
2023/04/26 06:07:38;;;;;;;;;;;;;;;9.01;nan;100759.78;5025541;28;19983;-82
2023/04/26 06:10:03;;;;;;;;;;;;;;;9.36;nan;100763.69;5055116;28;19924;-82
2023/04/26 06:12:29;;;;;;;;;;;;;;;9.71;nan;100767.59;5036822;28;20544;-83
2023/04/26 06:14:54;;;;;;;;;;;;;;;9.95;nan;100773.25;5050213;28;19921;-82
2023/04/26 06:17:20;;;;;;;;;;;;;;;10.19;nan;100778.06;5037259;28;19988;-82
2023/04/26 06:19:45;;;;;;;;;;;;;;;10.41;nan;100773.44;5051643;28;20191;-81
2023/04/26 06:22:10;;;;;;;;;;;;;;;10.51;nan;100782.19;5034957;28;19925;-82
2023/04/26 06:24:35;;;;;;;;;;;;;;;10.73;nan;100780.16;5032235;28;20307;-81
2023/04/26 06:27:00;;;;;;;;;;;;;;;10.99;nan;100782.94;5036597;28;20420;-82
2023/04/26 06:29:26;;;;;;;;;;;;;;;11.26;nan;100784.72;5047231;28;20011;-83
2023/04/26 06:31:51;;;;;;;;;;;;;;;11.51;nan;100783.13;5046977;28;19929;-83
2023/04/26 06:34:16;;;;;;;;;;;;;;;11.65;nan;100779.09;5052386;28;19963;-83
2023/04/26 06:36:41;;;;;;;;;;;;;;;11.99;nan;100779.25;5037178;28;19925;-82
2023/04/26 06:39:06;;;;;;;;;;;;;;;12.19;nan;100784.34;5038133;28;19974;-82
2023/04/26 06:41:32;;;;;;;;;;;;;;;12.44;nan;100780.88;5038606;28;19924;-83
2023/04/26 06:43:58;;;;;;;;;;;;;;;12.61;nan;100775.63;5051499;28;19944;-83
2023/04/26 06:46:23;;;;;;;;;;;;;;;13.05;nan;100770.97;5050796;28;19928;-83
2023/04/26 06:48:48;;;;;;;;;;;;;;;13.24;nan;100772.50;5049713;28;19920;-83
2023/04/26 06:51:13;;;;;;;;;;;;;;;13.48;nan;100776.25;5034713;28;20822;-81
2023/04/26 06:53:40;;;;;;;;;;;;;;;13.62;nan;100770.28;5052470;28;19925;-83
2023/04/26 06:56:05;;;;;;;;;;;;;;;12.65;nan;100761.88;5035515;28;19921;-83
2023/04/26 06:58:31;;;;;;;;;;;;;;;12.87;nan;100754.31;5027503;28;19975;-82
2023/04/26 07:00:56;;;;;;;;;;;;;;;13.34;nan;100764.44;5036359;28;19961;-83
2023/04/26 07:03:21;;;;;;;;;;;;;;;13.70;nan;100764.13;5036781;28;19975;-83
2023/04/26 07:05:47;;;;;;;;;;;;;;;13.87;nan;100768.44;5052370;28;20573;-83
2023/04/26 07:08:12;;;;;;;;;;;;;;;13.89;nan;100765.59;5036578;28;19972;-83
2023/04/26 07:10:41;;;;;;;;;;;;;;;13.72;nan;100760.28;5050356;28;20450;-83
2023/04/26 07:13:06;;;;;;;;;;;;;;;13.81;nan;100761.97;5058014;28;19925;-83
2023/04/26 07:15:35;;;;;;;;;;;;;;;13.79;nan;100760.47;5048732;28;19938;-83
2023/04/26 07:18:00;;;;;;;;;;;;;;;13.62;nan;100758.81;5048338;28;19922;-82
2023/04/26 07:20:25;;;;;;;;;;;;;;;13.50;nan;100753.81;5016586;28;19932;-83
2023/04/26 07:22:53;;;;;;;;;;;;;;;13.80;nan;100762.16;5046420;28;19927;-83
2023/04/26 07:25:18;;;;;;;;;;;;;;;14.04;nan;100766.59;5038062;28;20508;-82
2023/04/26 07:27:43;;;;;;;;;;;;;;;14.11;nan;100758.75;5053394;28;19920;-83
2023/04/26 07:30:09;;;;;;;;;;;;;;;14.18;nan;100773.91;5055936;28;19955;-83
2023/04/26 07:32:35;;;;;;;;;;;;;;;14.62;nan;100765.47;5039270;28;20377;-83
2023/04/26 07:35:06;;;;;;;;;;;;;;;15.06;nan;100756.94;5037727;28;19920;-83
2023/04/26 07:37:32;;;;;;;;;;;;;;;15.49;nan;100761.81;5036135;28;20358;-83
2023/04/26 07:39:58;;;;;;;;;;;;;;;15.63;nan;100752.22;5054574;28;19968;-83
2023/04/26 07:42:24;;;;;;;;;;;;;;;16.03;nan;100758.22;5032537;28;19955;-83
2023/04/26 07:44:49;;;;;;;;;;;;;;;16.44;nan;100758.59;5037894;28;19920;-83
2023/04/26 07:47:14;;;;;;;;;;;;;;;16.64;nan;100758.88;5039788;28;19920;-83
2023/04/26 07:49:40;;;;;;;;;;;;;;;16.42;nan;100749.13;5043740;28;20442;-83
2023/04/26 07:52:06;;;;;;;;;;;;;;;16.70;nan;100751.97;5056115;28;19963;-83
2023/04/26 07:54:31;;;;;;;;;;;;;;;16.64;nan;100766.06;5041089;28;19921;-83
2023/04/26 07:56:57;;;;;;;;;;;;;;;16.59;nan;100763.97;5035098;28;20384;-83
2023/04/26 07:59:25;;;;;;;;;;;;;;;17.08;nan;100771.34;5038689;28;19927;-82
2023/04/26 08:01:50;;;;;;;;;;;;;;;17.65;nan;100769.66;5055580;28;19935;-82
2023/04/26 08:04:16;;;;;;;;;;;;;;;16.94;nan;100764.19;5039589;28;19917;-82
2023/04/26 08:06:43;;;;;;;;;;;;;;;16.66;nan;100761.34;5035947;28;19928;-79
2023/04/26 08:09:10;;;;;;;;;;;;;;;16.86;nan;100769.66;5046072;28;19987;-79
2023/04/26 08:11:36;;;;;;;;;;;;;;;17.12;nan;100763.78;5056604;28;19974;-82
2023/04/26 08:14:02;;;;;;;;;;;;;;;17.65;nan;100766.97;5039230;28;19931;-82
2023/04/26 08:16:27;;;;;;;;;;;;;;;17.17;nan;100758.72;5024834;28;20351;-83
2023/04/26 08:18:53;;;;;;;;;;;;;;;16.63;nan;100764.41;5054426;28;19928;-84
2023/04/26 08:21:18;;;;;;;;;;;;;;;16.04;nan;100771.38;5049212;28;19974;-85
2023/04/26 08:23:47;;;;;;;;;;;;;;;16.10;nan;100767.97;5039109;28;19932;-83
2023/04/26 08:26:12;;;;;;;;;;;;;;;16.56;nan;100765.16;5040254;28;19947;-81
2023/04/26 08:28:37;;;;;;;;;;;;;;;16.73;nan;100764.94;5054607;28;20007;-82
2023/04/26 08:31:03;;;;;;;;;;;;;;;16.75;nan;100769.06;5058130;28;19929;-81
2023/04/26 08:33:28;;;;;;;;;;;;;;;17.31;nan;100762.34;5022490;28;20488;-82
2023/04/26 08:35:54;;;;;;;;;;;;;;;17.64;nan;100754.66;5058319;28;19948;-84
2023/04/26 08:38:21;;;;;;;;;;;;;;;18.03;nan;100764.84;5036196;28;19916;-81
2023/04/26 08:40:46;;;;;;;;;;;;;;;17.97;nan;100754.94;5057347;28;19921;-81
2023/04/26 08:43:13;;;;;;;;;;;;;;;18.24;nan;100755.13;5037000;28;19931;-84
2023/04/26 08:45:39;;;;;;;;;;;;;;;18.99;nan;100758.78;5032454;28;20003;-82
2023/04/26 08:48:07;;;;;;;;;;;;;;;19.41;nan;100754.13;5056336;28;19968;-83
2023/04/26 08:50:35;;;;;;;;;;;;;;;19.64;nan;100751.06;5051607;28;19943;-82
2023/04/26 08:53:00;;;;;;;;;;;;;;;19.70;nan;100752.13;5052414;28;20027;-82
2023/04/26 08:55:26;;;;;;;;;;;;;;;19.93;nan;100741.78;5029798;28;19968;-84
2023/04/26 08:57:51;;;;;;;;;;;;;;;19.67;nan;100739.91;5023717;28;19928;-83
2023/04/26 09:00:17;;;;;;;;;;;;;;;19.90;nan;100742.22;5036370;28;19933;-82
2023/04/26 09:02:46;;;;;;;;;;;;;;;19.79;nan;100742.84;5034965;28;19929;-83
2023/04/26 09:05:14;;;;;;;;;;;;;;;19.98;nan;100740.34;5031364;28;19984;-82
2023/04/26 09:07:46;;;;;;;;;;;;;;;20.37;nan;100744.78;5029592;28;19921;-82
2023/04/26 09:10:11;;;;;;;;;;;;;;;19.93;nan;100740.97;5038640;28;19925;-83
2023/04/26 09:12:37;;;;;;;;;;;;;;;19.88;nan;100735.41;5038842;28;19926;-83
2023/04/26 09:15:03;;;;;;;;;;;;;;;18.75;nan;100736.00;5018883;28;19944;-82
2023/04/26 09:17:33;;;;;;;;;;;;;;;19.35;nan;100722.75;5056640;28;20311;-83
2023/04/26 09:19:58;;;;;;;;;;;;;;;19.97;nan;100733.31;5035500;28;19921;-82
2023/04/26 09:22:41;;;;;;;;;;;;;;;19.98;nan;100730.44;5025556;28;20377;-83
2023/04/26 09:25:07;;;;;;;;;;;;;;;19.72;nan;100732.09;5027755;28;19924;-82
2023/04/26 09:27:32;;;;;;;;;;;;;;;20.04;nan;100726.91;5037639;28;19956;-85
2023/04/26 09:30:00;;;;;;;;;;;;;;;20.37;nan;100724.13;5048595;28;19921;-83
2023/04/26 09:32:26;;;;;;;;;;;;;;;20.43;nan;100727.84;5054774;28;19932;-83
2023/04/26 09:34:51;;;;;;;;;;;;;;;19.71;nan;100724.25;5030700;28;19924;-82
2023/04/26 09:37:16;;;;;;;;;;;;;;;20.32;nan;100729.31;5038969;28;19992;-83
2023/04/26 09:39:41;;;;;;;;;;;;;;;20.09;nan;100726.28;5057340;28;19932;-83
2023/04/26 09:42:07;;;;;;;;;;;;;;;20.34;nan;100723.75;5057034;28;19921;-83
2023/04/26 09:44:33;;;;;;;;;;;;;;;20.21;nan;100724.59;5044133;28;19921;-83
2023/04/26 09:47:01;;;;;;;;;;;;;;;19.83;nan;100727.97;5055605;28;20400;-83
2023/04/26 09:49:43;;;;;;;;;;;;;;;20.32;nan;100729.31;5036975;28;20300;-83
2023/04/26 09:52:08;;;;;;;;;;;;;;;21.30;nan;100727.44;5036448;28;19964;-83
2023/04/26 09:54:37;;;;;;;;;;;;;;;22.09;nan;100725.13;5046748;28;19921;-83
2023/04/26 09:57:02;;;;;;;;;;;;;;;21.92;nan;100722.19;5033969;28;19931;-83
2023/04/26 09:59:37;;;;;;;;;;;;;;;21.42;nan;100728.41;5040965;28;20008;-83
2023/04/26 10:02:13;;;;;;;;;;;;;;;20.21;nan;100729.13;5031530;28;19944;-83
2023/04/26 10:04:38;;;;;;;;;;;;;;;19.65;nan;100722.38;5042687;28;19921;-83
2023/04/26 10:07:04;;;;;;;;;;;;;;;19.45;nan;100720.53;5060480;28;20445;-82
2023/04/26 10:09:30;;;;;;;;;;;;;;;18.74;nan;100715.59;5035907;28;19928;-83
2023/04/26 10:11:56;;;;;;;;;;;;;;;18.21;nan;100712.66;5040230;28;19991;-83
2023/04/26 10:14:22;;;;;;;;;;;;;;;17.92;nan;100708.38;5051479;28;19931;-82
2023/04/26 10:16:47;;;;;;;;;;;;;;;;;;5047173;28;20020;-82
2023/04/26 10:19:13;;;;;;;;;;;;;;;16.31;nan;100507.59;5056270;28;19932;-82
2023/04/26 10:21:38;;;;;;;;;;;;;;;;;;5022597;28;19921;-83
2023/04/26 10:24:03;;;;;;;;;;;;;;;;;;5029197;28;19926;-81
2023/04/26 10:26:50;;;;;;;;;;;;;;;16.83;nan;100500.28;5056003;28;20450;-82
2023/04/26 10:29:16;;;;;;;;;;;;;;;17.04;nan;100497.59;5031271;28;19927;-82
2023/04/26 10:32:00;;;;;;;;;;;;;;;18.15;nan;100700.09;5054941;28;19929;-82
2023/04/26 10:34:26;;;;;;;;;;;;;;;19.50;nan;100699.28;5036960;28;19957;-82
2023/04/26 10:37:10;;;;;;;;;;;;;;;20.33;nan;100703.28;5061628;28;20422;-83
2023/04/26 10:39:36;;;;;;;;;;;;;;;19.28;nan;100706.69;5047872;28;19916;-82
2023/04/26 10:42:22;;;;;;;;;;;;;;;19.26;nan;100699.88;5062641;28;21275;-83
2023/04/26 10:44:48;;;;;;;;;;;;;;;18.14;nan;100698.41;5040099;28;19921;-82
2023/04/26 10:47:23;;;;;;;;;;;;;;;18.46;nan;100694.25;5039598;28;19931;-82
2023/04/26 10:49:48;;;;;;;;;;;;;;;18.34;nan;100702.03;5041639;28;19921;-82
2023/04/26 10:52:15;;;;;;;;;;;;;;;18.39;nan;100694.22;5052717;28;19947;-82
2023/04/26 10:54:47;;;;;;;;;;;;;;;18.08;nan;100689.34;5022489;28;19921;-82
2023/04/26 10:57:13;;;;;;;;;;;;;;;17.96;nan;100678.34;5043675;28;19921;-83
2023/04/26 10:59:38;;;;;;;;;;;;;;;17.72;nan;100488.91;5023252;28;19935;-83
2023/04/26 11:02:03;;;;;;;;;;;;;;;17.07;nan;100486.50;5018473;28;20008;-82
2023/04/26 11:04:28;;;;;;;;;;;;;;;;;;5037932;28;19921;-84
2023/04/26 11:06:54;;;;;;;;;;;;;;;;;;5057153;28;19978;-82
2023/04/26 11:09:19;;;;;;;;;;;;;;;;;;5033661;28;19925;-82
2023/04/26 11:11:52;;;;;;;;;;;;;;;18.30;nan;100668.66;5061094;28;19925;-83
2023/04/26 11:14:17;;;;;;;;;;;;;;;20.00;nan;100658.59;5025389;28;19921;-83
2023/04/26 11:16:42;;;;;;;;;;;;;;;22.12;nan;100666.25;5037493;28;19921;-83
2023/04/26 11:19:08;;;;;;;;;;;;;;;23.36;nan;100659.59;5051485;28;19921;-83
2023/04/26 11:21:35;;;;;;;;;;;;;;;23.90;nan;100654.94;5043538;28;19987;-83
2023/04/26 11:24:00;;;;;;;;;;;;;;;24.22;nan;100658.06;5033358;28;19929;-83
2023/04/26 11:26:30;;;;;;;;;;;;;;;24.99;nan;100652.22;5058743;28;19929;-84
2023/04/26 11:28:55;;;;;;;;;;;;;;;24.79;nan;100655.41;5032805;28;19928;-83
2023/04/26 11:31:20;;;;;;;;;;;;;;;23.92;nan;100531.28;5029188;28;20193;-83
2023/04/26 11:33:46;;;;;;;;;;;;;;;24.58;nan;100527.13;5051362;28;20274;-83
2023/04/26 11:36:11;;;;;;;;;;;;;;;24.77;nan;100527.72;5042830;28;20354;-86
2023/04/26 11:38:37;;;;;;;;;;;;;;;25.31;nan;100524.47;5055269;28;20050;-84
2023/04/26 11:41:03;;;;;;;;;;;;;;;23.23;nan;100521.19;5029878;28;19936;-84
2023/04/26 11:43:38;;;;;;;;;;;;;;;23.43;nan;100509.19;5037708;28;19921;-83
2023/04/26 11:46:07;;;;;;;;;;;;;;;22.59;nan;100641.44;5039647;28;20328;-84
2023/04/26 11:48:34;;;;;;;;;;;;;;;20.67;nan;100491.75;5052886;28;19940;-82
2023/04/26 11:51:01;;;;;;;;;;;;;;;20.52;nan;100495.56;5061613;28;19943;-82
2023/04/26 11:53:42;;;;;;;;;;;;;;;20.60;nan;100486.44;5042838;28;19943;-83
2023/04/26 11:56:18;;;;;;;;;;;;;;;21.30;nan;100628.72;5061293;28;19920;-83
2023/04/26 11:58:44;;;;;;;;;;;;;;;20.07;nan;100627.19;5061874;28;19925;-83
2023/04/26 12:01:10;;;;;;;;;;;;;;;20.19;nan;100619.28;5049085;28;19927;-83
2023/04/26 12:03:36;;;;;;;;;;;;;;;19.64;nan;100633.03;5037524;28;19920;-83
2023/04/26 12:06:02;;;;;;;;;;;;;;;19.57;nan;100626.84;5027623;28;19928;-82
2023/04/26 12:08:27;;;;;;;;;;;;;;;18.95;nan;100620.88;5029775;28;19924;-83
2023/04/26 12:10:53;;;;;;;;;;;;;;;18.62;nan;100621.59;5034611;28;19924;-83
2023/04/26 12:13:19;;;;;;;;;;;;;;;18.89;nan;100619.81;5056714;28;20287;-83
2023/04/26 12:15:44;;;;;;;;;;;;;;;18.81;nan;100621.88;5043450;28;19944;-82
2023/04/26 12:18:10;;;;;;;;;;;;;;;18.17;nan;100631.13;5042950;28;19990;-83
2023/04/26 12:20:37;;;;;;;;;;;;;;;18.04;nan;100629.19;5037129;28;19921;-83
2023/04/26 12:23:06;;;;;;;;;;;;;;;17.48;nan;100622.06;5042149;28;19932;-83
2023/04/26 12:25:33;;;;;;;;;;;;;;;17.02;nan;100617.16;5057210;28;19925;-82
2023/04/26 12:27:59;;;;;;;;;;;;;;;16.71;nan;100612.13;5043380;28;19984;-83
2023/04/26 12:30:25;;;;;;;;;;;;;;;16.98;nan;100616.72;5037619;28;19952;-82
2023/04/26 12:32:50;;;;;;;;;;;;;;;17.18;nan;100619.56;5043446;28;19920;-83
2023/04/26 12:35:15;;;;;;;;;;;;;;;16.95;nan;100610.94;5025759;28;20127;-83
2023/04/26 12:37:40;;;;;;;;;;;;;;;16.88;nan;100621.56;5040698;28;19925;-82
2023/04/26 12:40:06;;;;;;;;;;;;;;;16.61;nan;100620.41;5064269;28;19990;-82
2023/04/26 12:42:31;;;;;;;;;;;;;;;16.06;nan;100627.97;5061489;28;19931;-82
2023/04/26 12:44:57;;;;;;;;;;;;;;;15.78;nan;100627.81;5055773;28;19928;-82
2023/04/26 12:47:22;;;;;;;;;;;;;;;16.05;nan;100620.16;5055458;28;19932;-82
2023/04/26 12:49:47;;;;;;;;;;;;;;;16.23;nan;100615.28;5039923;28;19924;-82
2023/04/26 12:52:12;;;;;;;;;;;;;;;16.08;nan;100622.44;5061504;28;19920;-82
2023/04/26 12:54:38;;;;;;;;;;;;;;;15.94;nan;100626.78;5060713;28;19928;-82
2023/04/26 12:57:04;;;;;;;;;;;;;;;15.73;nan;100622.19;5047235;28;19916;-82
2023/04/26 12:59:29;;;;;;;;;;;;;;;15.95;nan;100624.97;5060575;28;19917;-82